CheckWX is a tool to help pilots better visualize weather data.  It is not intended as a substitute for an official pre-flight weather briefing.

13:43:49 UTC

GLRB TAF
Roberts International Airport
Monrovia, Liberia
TAF GLRB 151000Z 1512/1618 22010KT 9999 BKN016 FEW025 CB TEMPO 1514/1518 32006KT 7000 -TSRA BKN012 FEW024CB TEMPO 1520/1524 00000KT 9000

Sep-15@
12:00 UTC

Sep-15 @ 12:00 UTC

Sep-16@
18:00 UTC

Sep-16 @ 18:00 UTC

TAF GLRB 151000Z 1512/1618 22010KT 9999 BKN016 FEW025 CB
Wind
  • 220° at 10 KTS
Cloud Levels
  • Broken at 1,600' AGL
  • Few at 2,500' AGL

Sep-15@
14:00 UTC

Sep-15 @ 14:00 UTC

Sep-15@
18:00 UTC

Sep-15 @ 18:00 UTC

TEMPO 1514/1518 32006KT 7000 -TSRA BKN012 FEW024CB

Temporary

Temporary Changes expected for less than half the time period

Wind
  • 320° at 6 KTS
Conditions
Light Thunderstorm, Light Rain
Cloud Levels
  • Broken at 1,200' AGL
  • Few at 2,400' AGL

Sep-15@
20:00 UTC

Sep-15 @ 20:00 UTC

Sep-16@
00:00 UTC

Sep-16 @ 00:00 UTC

TEMPO 1520/1524 00000KT 9000

Temporary

Temporary Changes expected for less than half the time period